createdAt,value
2023-04-05T00:00:11.430Z,99593.73
2023-04-05T00:01:15.325Z,99577.34
2023-04-05T00:02:19.219Z,99581.56
2023-04-05T00:03:21.832Z,99580.70
2023-04-05T00:04:24.352Z,99578.17
2023-04-05T00:05:33.179Z,99577.34
2023-04-05T00:06:37.218Z,99578.97
2023-04-05T00:07:40.109Z,99576.79
2023-04-05T00:08:43.835Z,99584.50
2023-04-05T00:09:47.073Z,99580.23
2023-04-05T00:10:50.476Z,99577.73
2023-04-05T00:11:52.888Z,99576.76
2023-04-05T00:12:55.210Z,99573.63
2023-04-05T00:13:59.722Z,99566.62
2023-04-05T00:15:04.470Z,99567.31
2023-04-05T00:16:08.654Z,99560.65
2023-04-05T00:17:12.670Z,99566.66
2023-04-05T00:18:22.778Z,99563.11
2023-04-05T00:19:25.451Z,99567.34
2023-04-05T00:20:28.690Z,99567.20
2023-04-05T00:21:32.924Z,99572.34
2023-04-05T00:22:36.729Z,99568.91
2023-04-05T00:23:39.045Z,99561.12
2023-04-05T00:24:42.789Z,99567.16
2023-04-05T00:25:46.311Z,99569.63
2023-04-05T00:26:48.808Z,99570.53
2023-04-05T00:27:51.541Z,99563.80
2023-04-05T00:28:54.640Z,99561.34
2023-04-05T00:29:56.996Z,99561.30
2023-04-05T00:30:59.523Z,99564.70
2023-04-05T00:32:01.994Z,99570.71
2023-04-05T00:33:06.346Z,99564.59
2023-04-05T00:34:09.764Z,99566.41
2023-04-05T00:35:12.362Z,99566.44
2023-04-05T00:36:20.130Z,99564.70
2023-04-05T00:37:22.623Z,99564.88
2023-04-05T00:38:25.814Z,99565.64
2023-04-05T00:39:28.200Z,99553.59
2023-04-05T00:40:31.642Z,99560.58
2023-04-05T00:41:35.805Z,99563.08
2023-04-05T00:42:38.104Z,99561.30
2023-04-05T00:43:41.476Z,99561.30
2023-04-05T00:44:43.857Z,99557.17
2023-04-05T00:45:47.031Z,99556.27
2023-04-05T00:46:50.493Z,99559.67
2023-04-05T00:47:53.249Z,99557.11
2023-04-05T00:48:56.138Z,99557.83
2023-04-05T00:50:00.482Z,99557.83
2023-04-05T00:51:03.251Z,99556.12
2023-04-05T00:52:06.733Z,99549.25
2023-04-05T00:53:09.286Z,99551.82
2023-04-05T00:54:12.489Z,99550.87
2023-04-05T00:55:14.652Z,99542.41
2023-04-05T00:56:17.066Z,99547.66
2023-04-05T00:57:20.117Z,99546.83
2023-04-05T00:58:23.394Z,99540.73
2023-04-05T00:59:28.284Z,99539.80
2023-04-05T01:00:31.514Z,99535.64
2023-04-05T01:01:37.139Z,99542.45
2023-04-05T01:02:49.621Z,99533.03
2023-04-05T01:03:54.999Z,99530.75
2023-04-05T01:05:01.452Z,99527.20
2023-04-05T01:06:17.329Z,99533.98
2023-04-05T01:07:27.727Z,99532.38
2023-04-05T01:08:42.806Z,99527.31
2023-04-05T01:09:56.937Z,99527.25
2023-04-05T01:11:03.188Z,99528.95
2023-04-05T01:12:08.775Z,99522.00
2023-04-05T01:13:11.059Z,99530.68
2023-04-05T01:14:13.989Z,99520.48
2023-04-05T01:15:19.319Z,99518.78
2023-04-05T01:16:22.006Z,99520.41
2023-04-05T01:17:27.919Z,99504.87
2023-04-05T01:18:30.862Z,99510.09
2023-04-05T01:19:34.874Z,99499.81
2023-04-05T01:20:42.425Z,99508.35
2023-04-05T01:21:49.029Z,99504.27
2023-04-05T01:23:13.290Z,99510.09
2023-04-05T01:24:25.373Z,99515.13
2023-04-05T01:25:37.191Z,99506.50
2023-04-05T01:26:58.667Z,99505.86
2023-04-05T01:28:10.480Z,99510.02
2023-04-05T01:29:40.262Z,99511.79
2023-04-05T01:30:45.821Z,99515.27
2023-04-05T01:32:23.439Z,99510.12
2023-04-05T01:33:36.056Z,99510.05
2023-04-05T01:34:53.922Z,99516.93
2023-04-05T01:36:02.852Z,99515.95
2023-04-05T01:37:12.014Z,99518.41
2023-04-05T01:38:17.887Z,99511.49
2023-04-05T01:39:22.832Z,99514.97
2023-04-05T01:40:25.407Z,99506.50
2023-04-05T01:41:27.930Z,99517.54
2023-04-05T01:42:30.870Z,99512.32
2023-04-05T01:43:33.318Z,99513.03
2023-04-05T01:44:37.395Z,99504.45
2023-04-05T01:45:41.183Z,99503.63
2023-04-05T01:46:45.746Z,99501.09
2023-04-05T01:47:49.382Z,99504.45
2023-04-05T01:48:53.497Z,99495.87
2023-04-05T01:49:57.513Z,99497.61
2023-04-05T01:51:01.508Z,99502.87
2023-04-05T01:52:04.271Z,99509.94
2023-04-05T01:53:08.000Z,99506.42
2023-04-05T01:54:10.987Z,99491.13
2023-04-05T01:55:13.132Z,99497.96
2023-04-05T01:56:15.797Z,99499.59
2023-04-05T01:57:18.322Z,99494.45
2023-04-05T01:58:21.569Z,99483.26
2023-04-05T01:59:24.110Z,99493.61
2023-04-05T02:00:27.330Z,99487.61
2023-04-05T02:01:29.904Z,99489.34
2023-04-05T02:02:32.627Z,99488.47
2023-04-05T02:03:35.351Z,99491.80
2023-04-05T02:04:38.247Z,99504.49
2023-04-05T02:05:41.663Z,99497.61
2023-04-05T02:06:45.721Z,99489.07
2023-04-05T02:07:48.258Z,99481.35
2023-04-05T02:08:50.727Z,99478.78
2023-04-05T02:09:52.926Z,99479.66
2023-04-05T02:10:55.385Z,99475.51
2023-04-05T02:11:57.692Z,99479.78
2023-04-05T02:13:00.477Z,99479.81
2023-04-05T02:14:03.645Z,99472.19
2023-04-05T02:15:06.849Z,99473.84
2023-04-05T02:16:09.868Z,99473.88
2023-04-05T02:17:12.527Z,99466.92
2023-04-05T02:18:15.173Z,99473.69
2023-04-05T02:19:21.249Z,99474.44
2023-04-05T02:20:25.295Z,99477.17
2023-04-05T02:21:27.956Z,99477.17
2023-04-05T02:22:30.187Z,99478.31
2023-04-05T02:23:33.208Z,99472.22
2023-04-05T02:24:36.155Z,99476.41
2023-04-05T02:25:39.938Z,99474.52
2023-04-05T02:26:43.234Z,99470.16
2023-04-05T02:27:45.542Z,99466.69
2023-04-05T02:28:49.866Z,99458.97
2023-04-05T02:29:52.425Z,99456.52
2023-04-05T02:30:55.525Z,99458.18
2023-04-05T02:31:59.409Z,99467.59
2023-04-05T02:33:03.074Z,99460.80
2023-04-05T02:34:07.821Z,99463.32
2023-04-05T02:35:10.132Z,99455.48
2023-04-05T02:36:13.712Z,99463.12
2023-04-05T02:37:16.279Z,99468.25
2023-04-05T02:38:18.499Z,99466.64
2023-04-05T02:39:20.909Z,99458.05
2023-04-05T02:40:23.527Z,99458.14
2023-04-05T02:41:26.568Z,99456.52
2023-04-05T02:42:28.871Z,99454.86
2023-04-05T02:43:31.753Z,99456.52
2023-04-05T02:44:34.665Z,99454.78
2023-04-05T02:45:37.167Z,99451.50
2023-04-05T02:46:40.486Z,99453.16
2023-04-05T02:47:42.997Z,99457.39
2023-04-05T02:48:45.996Z,99454.86
2023-04-05T02:49:50.145Z,99448.89
2023-04-05T02:50:52.812Z,99457.18
2023-04-05T02:51:55.661Z,99449.30
2023-04-05T02:52:58.341Z,99448.52
2023-04-05T02:54:02.366Z,99445.25
2023-04-05T02:55:07.020Z,99430.83
2023-04-05T02:56:12.147Z,99424.11
2023-04-05T02:57:15.943Z,99422.45
2023-04-05T02:58:20.314Z,99424.06
2023-04-05T02:59:23.239Z,99426.68
2023-04-05T03:00:25.859Z,99420.79
2023-04-05T03:01:28.767Z,99417.39
2023-04-05T03:02:32.170Z,99420.91
2023-04-05T03:03:35.068Z,99438.86
2023-04-05T03:04:40.447Z,99438.86
2023-04-05T03:05:43.295Z,99441.42
2023-04-05T03:06:48.160Z,99434.47
2023-04-05T03:07:51.524Z,99445.45
2023-04-05T03:08:58.749Z,99439.44
2023-04-05T03:10:02.058Z,99434.34
2023-04-05T03:11:06.690Z,99443.05
2023-04-05T03:12:09.412Z,99432.64
2023-04-05T03:13:17.211Z,99432.64
2023-04-05T03:14:19.985Z,99431.02
2023-04-05T03:15:22.684Z,99428.54
2023-04-05T03:16:25.693Z,99427.63
2023-04-05T03:17:28.080Z,99430.98
2023-04-05T03:18:35.083Z,99428.38
2023-04-05T03:19:40.642Z,99423.23
2023-04-05T03:20:45.986Z,99426.67
2023-04-05T03:21:50.559Z,99416.31
2023-04-05T03:22:54.938Z,99424.89
2023-04-05T03:23:59.903Z,99426.59
2023-04-05T03:25:05.207Z,99430.83
2023-04-05T03:26:10.357Z,99429.20
2023-04-05T03:27:14.898Z,99438.53
2023-04-05T03:28:34.166Z,99426.62
2023-04-05T03:29:38.427Z,99424.81
2023-04-05T03:30:42.701Z,99425.80
2023-04-05T03:31:50.284Z,99431.89
2023-04-05T03:32:56.439Z,99433.55
2023-04-05T03:34:00.567Z,99436.09
2023-04-05T03:35:05.774Z,99429.33
2023-04-05T03:36:10.658Z,99437.86
2023-04-05T03:37:15.004Z,99439.48
2023-04-05T03:38:19.295Z,99435.13
2023-04-05T03:39:36.415Z,99433.30
2023-04-05T03:40:41.460Z,99446.08
2023-04-05T03:41:45.204Z,99439.23
2023-04-05T03:42:47.811Z,99434.05
2023-04-05T03:43:50.231Z,99434.84
2023-04-05T03:44:56.065Z,99432.39
2023-04-05T03:45:58.343Z,99430.70
2023-04-05T03:47:02.679Z,99431.69
2023-04-05T03:48:06.250Z,99434.22
2023-04-05T03:49:09.206Z,99435.97
2023-04-05T03:50:12.765Z,99444.83
2023-04-05T03:51:16.558Z,99444.91
2023-04-05T03:52:18.974Z,99441.47
2023-04-05T03:53:22.443Z,99434.55
2023-04-05T03:54:27.130Z,99444.70
2023-04-05T03:55:31.743Z,99445.53
2023-04-05T03:56:36.157Z,99449.77
2023-04-05T03:57:42.417Z,99443.09
2023-04-05T03:58:46.708Z,99443.09
2023-04-05T03:59:50.134Z,99447.28
2023-04-05T04:00:55.345Z,99450.00
2023-04-05T04:01:58.323Z,99444.83
2023-04-05T04:03:01.461Z,99451.75
2023-04-05T04:04:04.484Z,99447.56
2023-04-05T04:05:07.437Z,99465.34
2023-04-05T04:06:10.826Z,99450.84
2023-04-05T04:07:14.120Z,99444.75
2023-04-05T04:08:16.526Z,99448.30
2023-04-05T04:09:18.851Z,99454.31
2023-04-05T04:10:21.601Z,99450.13
2023-04-05T04:11:26.683Z,99460.28
2023-04-05T04:12:29.355Z,99458.59
2023-04-05T04:13:33.532Z,99453.56
2023-04-05T04:14:40.123Z,99445.85
2023-04-05T04:15:53.278Z,99442.50
2023-04-05T04:17:00.711Z,99450.00
2023-04-05T04:18:07.732Z,99446.48
2023-04-05T04:19:13.146Z,99445.61
2023-04-05T04:20:23.861Z,99442.26
2023-04-05T04:21:46.620Z,99444.79
2023-04-05T04:22:59.695Z,99445.97
2023-04-05T04:24:07.389Z,99447.83
2023-04-05T04:25:28.439Z,99449.38
2023-04-05T04:26:35.208Z,99439.02
2023-04-05T04:27:42.020Z,99432.94
2023-04-05T04:28:52.993Z,99433.88
2023-04-05T04:30:16.014Z,99427.00
2023-04-05T04:31:23.460Z,99431.98
2023-04-05T04:34:06.467Z,99435.30
2023-04-05T04:35:16.619Z,99433.05
2023-04-05T04:36:22.682Z,99436.41
2023-04-05T04:37:29.780Z,99429.61
2023-04-05T04:38:44.616Z,99432.81
2023-04-05T04:39:49.040Z,99428.50
2023-04-05T04:41:11.998Z,99432.77
2023-04-05T04:42:22.543Z,99432.72
2023-04-05T04:43:44.115Z,99437.91
2023-04-05T04:45:06.795Z,99431.94
2023-04-05T04:46:30.184Z,99430.24
2023-04-05T04:47:34.437Z,99429.33
2023-04-05T04:49:01.292Z,99424.23
2023-04-05T04:51:17.264Z,99424.84
2023-04-05T04:52:20.788Z,99426.84
2023-04-05T04:53:24.359Z,99423.31
2023-04-05T04:54:28.886Z,99426.75
2023-04-05T04:55:32.789Z,99422.48
2023-04-05T04:56:35.236Z,99419.05
2023-04-05T04:57:37.518Z,99425.88
2023-04-05T04:58:40.168Z,99430.98
2023-04-05T04:59:44.168Z,99427.67
2023-04-05T05:00:47.670Z,99424.97
2023-04-05T05:01:50.200Z,99429.12
2023-04-05T05:02:52.909Z,99413.66
2023-04-05T05:03:55.629Z,99423.90
2023-04-05T05:05:05.004Z,99429.03
2023-04-05T05:06:07.990Z,99432.39
2023-04-05T05:07:12.201Z,99432.39
2023-04-05T05:08:14.962Z,99425.55
2023-04-05T05:09:17.754Z,99430.77
2023-04-05T05:10:22.018Z,99428.17
2023-04-05T05:11:24.359Z,99433.27
2023-04-05T05:12:27.037Z,99434.17
2023-04-05T05:13:29.484Z,99435.79
2023-04-05T05:14:31.702Z,99435.79
2023-04-05T05:15:33.945Z,99427.25
2023-04-05T05:16:38.432Z,99430.65
2023-04-05T05:17:41.018Z,99424.89
2023-04-05T05:18:44.635Z,99428.12
2023-04-05T05:19:46.944Z,99427.25
2023-04-05T05:20:52.521Z,99432.47
2023-04-05T05:23:01.113Z,99432.34
2023-04-05T05:24:04.761Z,99432.34
2023-04-05T05:25:09.432Z,99425.55
2023-04-05T05:26:14.262Z,99428.13
2023-04-05T05:27:16.805Z,99431.47
2023-04-05T05:28:19.234Z,99427.25
2023-04-05T05:29:21.692Z,99429.83
2023-04-05T05:30:26.479Z,99415.39
2023-04-05T05:31:29.029Z,99426.38
2023-04-05T05:32:31.617Z,99413.95
2023-04-05T05:33:33.922Z,99419.83
2023-04-05T05:34:37.259Z,99425.72
2023-04-05T05:35:40.484Z,99423.06
2023-04-05T05:36:43.187Z,99418.75
2023-04-05T05:37:46.395Z,99422.89
2023-04-05T05:38:48.917Z,99425.38
2023-04-05T05:39:51.421Z,99427.38
2023-04-05T05:40:58.083Z,99422.98
2023-04-05T05:42:00.547Z,99427.25
2023-04-05T05:43:03.715Z,99426.30
2023-04-05T05:44:07.707Z,99423.02
2023-04-05T05:45:10.743Z,99425.51
2023-04-05T05:46:13.831Z,99431.48
2023-04-05T05:47:16.329Z,99436.58
2023-04-05T05:48:18.797Z,99439.06
2023-04-05T05:49:21.456Z,99438.98
2023-04-05T05:50:24.650Z,99427.86
2023-04-05T05:51:27.124Z,99426.95
2023-04-05T05:52:29.878Z,99426.24
2023-04-05T05:53:32.304Z,99425.46
2023-04-05T05:54:34.661Z,99428.77
2023-04-05T05:55:37.168Z,99427.03
2023-04-05T05:56:39.644Z,99427.78
2023-04-05T05:57:41.961Z,99424.42
2023-04-05T05:58:44.201Z,99430.39
2023-04-05T05:59:46.954Z,99418.45
2023-04-05T06:00:51.229Z,99426.12
2023-04-05T06:01:54.598Z,99419.31
2023-04-05T06:02:58.620Z,99427.86
2023-04-05T06:04:01.567Z,99423.55
2023-04-05T06:05:04.937Z,99409.77
2023-04-05T06:06:11.674Z,99418.28
2023-04-05T06:07:14.213Z,99421.63
2023-04-05T06:08:16.688Z,99410.47
2023-04-05T06:09:19.059Z,99419.01
2023-04-05T06:10:21.740Z,99413.09
2023-04-05T06:11:24.778Z,99414.78
2023-04-05T06:12:28.699Z,99412.13
2023-04-05T06:13:31.659Z,99414.59
2023-04-05T06:14:34.136Z,99408.72
2023-04-05T06:15:36.304Z,99418.91
2023-04-05T06:16:38.792Z,99418.09
2023-04-05T06:17:42.090Z,99414.69
2023-04-05T06:18:44.782Z,99410.24
2023-04-05T06:19:47.563Z,99411.06
2023-04-05T06:20:50.718Z,99405.92
2023-04-05T06:21:54.936Z,99414.59
2023-04-05T06:22:57.607Z,99410.46
2023-04-05T06:23:59.980Z,99410.34
2023-04-05T06:25:02.643Z,99406.80
2023-04-05T06:26:05.004Z,99410.00
2023-04-05T06:27:09.919Z,99413.50
2023-04-05T06:28:12.219Z,99409.95
2023-04-05T06:29:15.304Z,99402.33
2023-04-05T06:30:18.049Z,99395.34
2023-04-05T06:31:23.192Z,99392.67
2023-04-05T06:32:25.559Z,99380.69
2023-04-05T06:33:28.298Z,99389.28
2023-04-05T06:34:31.932Z,99395.25
2023-04-05T06:35:34.578Z,99395.25
2023-04-05T06:36:37.478Z,99390.87
2023-04-05T06:37:41.174Z,99387.33
2023-04-05T06:38:43.799Z,99393.10
2023-04-05T06:39:47.423Z,99386.26
2023-04-05T06:40:51.506Z,99386.31
2023-04-05T06:41:53.854Z,99387.18
2023-04-05T06:42:58.467Z,99381.22
2023-04-05T06:44:02.594Z,99389.77
2023-04-05T06:45:05.767Z,99385.63
2023-04-05T06:46:10.245Z,99397.63
2023-04-05T06:47:14.747Z,99393.27
2023-04-05T06:48:17.134Z,99400.92
2023-04-05T06:49:21.486Z,99397.48
2023-04-05T06:50:24.059Z,99395.59
2023-04-05T06:51:28.150Z,99381.95
2023-04-05T06:52:30.564Z,99381.95
2023-04-05T06:53:32.836Z,99388.16
2023-04-05T06:54:37.781Z,99396.61
2023-04-05T06:55:42.944Z,99388.78
2023-04-05T06:56:45.762Z,99384.41
2023-04-05T06:57:47.948Z,99394.56
2023-04-05T06:58:51.065Z,99384.20
2023-04-05T06:59:54.311Z,99388.48
2023-04-05T07:00:57.367Z,99383.33
2023-04-05T07:01:59.818Z,99385.80
2023-04-05T07:03:02.351Z,99390.80
2023-04-05T07:04:05.767Z,99384.73
2023-04-05T07:05:08.557Z,99388.53
2023-04-05T07:06:12.137Z,99396.10
2023-04-05T07:07:14.605Z,99385.74
2023-04-05T07:08:18.255Z,99392.50
2023-04-05T07:09:22.123Z,99403.61
2023-04-05T07:10:24.940Z,99398.48
2023-04-05T07:11:27.517Z,99397.58
2023-04-05T07:12:30.483Z,99402.58
2023-04-05T07:13:33.469Z,99400.22
2023-04-05T07:14:37.160Z,99397.70
2023-04-05T07:15:39.840Z,99404.86
2023-04-05T07:16:42.425Z,99399.65
2023-04-05T07:17:45.004Z,99403.61
2023-04-05T07:18:47.247Z,99397.64
2023-04-05T07:19:49.615Z,99388.84
2023-04-05T07:20:53.751Z,99397.98
2023-04-05T07:21:57.348Z,99388.34
2023-04-05T07:22:59.918Z,99402.82
2023-04-05T07:24:02.833Z,99397.51
2023-04-05T07:25:07.965Z,99393.10
2023-04-05T07:26:11.872Z,99396.39
2023-04-05T07:27:15.246Z,99388.61
2023-04-05T07:28:18.320Z,99383.56
2023-04-05T07:29:21.129Z,99394.70
2023-04-05T07:30:25.405Z,99383.03
2023-04-05T07:31:27.605Z,99386.25
2023-04-05T07:32:29.897Z,99391.24
2023-04-05T07:33:32.387Z,99398.85
2023-04-05T07:34:35.023Z,99392.07
2023-04-05T07:35:39.581Z,99395.58
2023-04-05T07:36:43.191Z,99392.13
2023-04-05T07:37:45.926Z,99392.13
2023-04-05T07:38:48.328Z,99392.94
2023-04-05T07:39:51.058Z,99390.26
2023-04-05T07:40:53.308Z,99393.53
2023-04-05T07:41:56.330Z,99397.53
2023-04-05T07:42:58.876Z,99399.92
2023-04-05T07:44:01.296Z,99395.58
2023-04-05T07:45:05.200Z,99394.53
2023-04-05T07:46:08.152Z,99396.12
2023-04-05T07:47:11.405Z,99398.52
2023-04-05T07:48:13.775Z,99387.27
2023-04-05T07:49:16.220Z,99382.05
2023-04-05T07:50:19.286Z,99399.33
2023-04-05T07:51:22.275Z,99379.00
2023-04-05T07:52:25.032Z,99377.84
2023-04-05T07:53:28.002Z,99383.64
2023-04-05T07:54:36.419Z,99384.98
2023-04-05T07:55:38.589Z,99384.64
2023-04-05T07:56:42.117Z,99380.30
2023-04-05T07:57:44.483Z,99386.44
2023-04-05T07:58:47.616Z,99383.98
2023-04-05T07:59:52.501Z,99391.14
2023-04-05T08:01:00.669Z,99392.64
2023-04-05T08:02:12.362Z,99391.83
2023-04-05T08:03:08.666Z,99392.77
2023-04-05T08:04:12.097Z,99392.53
2023-04-05T08:05:14.502Z,99395.92
2023-04-05T08:06:19.355Z,99389.15
2023-04-05T08:07:22.837Z,99395.12
2023-04-05T08:08:25.437Z,99402.22
2023-04-05T08:09:27.688Z,99389.13
2023-04-05T08:10:30.315Z,99387.20
2023-04-05T08:11:32.749Z,99399.34
2023-04-05T08:12:36.489Z,99393.42
2023-04-05T08:13:42.321Z,99397.64
2023-04-05T08:14:45.276Z,99390.59
2023-04-05T08:15:48.317Z,99392.86
2023-04-05T08:16:51.251Z,99385.77
2023-04-05T08:17:54.502Z,99387.27
2023-04-05T08:18:57.959Z,99394.83
2023-04-05T08:20:00.154Z,99390.55
2023-04-05T08:21:02.450Z,99399.02
2023-04-05T08:22:04.735Z,99395.50
2023-04-05T08:23:08.480Z,99402.38
2023-04-05T08:24:11.364Z,99399.91
2023-04-05T08:25:14.648Z,99403.99
2023-04-05T08:26:17.369Z,99399.64
2023-04-05T08:27:19.748Z,99406.27
2023-04-05T08:28:23.446Z,99408.72
2023-04-05T08:29:26.185Z,99401.92
2023-04-05T08:30:29.188Z,99408.85
2023-04-05T08:31:32.937Z,99402.03
2023-04-05T08:32:35.570Z,99408.08
2023-04-05T08:33:38.927Z,99409.80
2023-04-05T08:34:41.210Z,99416.66
2023-04-05T08:35:43.852Z,99411.55
2023-04-05T08:36:48.734Z,99420.28
2023-04-05T08:37:51.339Z,99415.90
2023-04-05T08:38:53.596Z,99416.84
2023-04-05T08:39:55.752Z,99415.13
2023-04-05T08:41:16.600Z,99417.52
2023-04-05T08:43:52.772Z,99411.77
2023-04-05T08:44:57.782Z,99417.02
2023-04-05T08:46:02.105Z,99407.69
2023-04-05T08:47:04.756Z,99415.36
2023-04-05T08:48:07.981Z,99399.89
2023-04-05T08:49:11.146Z,99399.89
2023-04-05T08:50:13.979Z,99410.97
2023-04-05T08:51:21.628Z,99403.22
2023-04-05T08:52:26.613Z,99408.52
2023-04-05T08:53:29.409Z,99408.69
2023-04-05T08:54:31.874Z,99406.13
2023-04-05T08:55:34.757Z,99416.70
2023-04-05T08:56:39.309Z,99409.85
2023-04-05T08:57:45.892Z,99410.84
2023-04-05T08:59:01.201Z,99414.13
2023-04-05T09:00:07.644Z,99407.46
2023-04-05T09:01:10.446Z,99404.83
2023-04-05T09:02:18.615Z,99414.20
2023-04-05T09:03:23.802Z,99397.95
2023-04-05T09:04:30.985Z,99401.28
2023-04-05T09:05:35.895Z,99397.33
2023-04-05T09:06:38.964Z,99409.23
2023-04-05T09:07:42.539Z,99402.24
2023-04-05T09:08:45.759Z,99405.58
2023-04-05T09:09:52.187Z,99402.86
2023-04-05T09:10:55.361Z,99409.85
2023-04-05T09:11:57.852Z,99405.58
2023-04-05T09:13:01.825Z,99403.80
2023-04-05T09:14:05.437Z,99407.27
2023-04-05T09:15:08.488Z,99398.64
2023-04-05T09:16:16.869Z,99411.63
2023-04-05T09:17:20.037Z,99402.38
2023-04-05T09:18:27.061Z,99401.55
2023-04-05T09:19:27.163Z,99403.32
2023-04-05T09:20:29.667Z,99401.22
2023-04-05T09:21:37.136Z,99402.22
2023-04-05T09:22:45.052Z,99396.95
2023-04-05T09:23:54.087Z,99395.87
2023-04-05T09:24:56.486Z,99398.72
2023-04-05T09:25:59.877Z,99390.09
2023-04-05T09:27:18.271Z,99393.28
2023-04-05T09:28:22.574Z,99389.70
2023-04-05T09:29:30.038Z,99391.20
2023-04-05T09:30:34.408Z,99389.42
2023-04-05T09:31:38.168Z,99397.78
2023-04-05T09:32:47.470Z,99385.67
2023-04-05T09:33:49.942Z,99386.59
2023-04-05T09:34:54.087Z,99396.17
2023-04-05T09:35:58.978Z,99392.55
2023-04-05T09:37:01.896Z,99395.83
2023-04-05T09:38:05.453Z,99388.91
2023-04-05T09:39:10.135Z,99393.13
2023-04-05T09:40:14.575Z,99396.45
2023-04-05T09:41:17.136Z,99394.94
2023-04-05T09:42:23.195Z,99396.83
2023-04-05T09:43:43.000Z,99389.42
2023-04-05T09:44:57.577Z,99390.98
2023-04-05T09:48:51.879Z,99390.75
2023-04-05T09:49:54.175Z,99385.50
2023-04-05T09:52:25.324Z,99383.67
2023-04-05T09:53:30.089Z,99390.34
2023-04-05T09:54:36.540Z,99393.44
2023-04-05T09:55:39.156Z,99383.78
2023-04-05T09:56:47.131Z,99398.72
2023-04-05T09:57:49.908Z,99385.86
2023-04-05T09:58:52.410Z,99384.05
2023-04-05T09:59:55.496Z,99381.31
2023-04-05T10:01:03.334Z,99391.28
2023-04-05T10:02:03.650Z,99386.56
2023-04-05T10:03:06.226Z,99376.95
2023-04-05T10:04:09.039Z,99382.64
2023-04-05T10:05:15.373Z,99389.09
2023-04-05T10:06:18.684Z,99388.00
2023-04-05T10:07:21.420Z,99375.93
2023-04-05T10:08:25.158Z,99370.19
2023-04-05T10:09:27.817Z,99370.19
2023-04-05T10:10:34.104Z,99381.64
2023-04-05T10:11:39.000Z,99377.09
2023-04-05T10:12:43.020Z,99378.66
2023-04-05T10:13:48.627Z,99376.63
2023-04-05T10:14:52.348Z,99385.25
2023-04-05T10:15:58.346Z,99372.24
2023-04-05T10:17:19.697Z,99369.48
2023-04-05T10:18:27.077Z,99372.07
2023-04-05T10:19:39.443Z,99366.74
2023-04-05T10:20:47.774Z,99369.76
2023-04-05T10:21:53.074Z,99365.62
2023-04-05T10:23:02.246Z,99367.97
2023-04-05T10:24:14.194Z,99365.09
2023-04-05T10:25:29.757Z,99365.44
2023-04-05T10:26:42.766Z,99367.38
2023-04-05T10:27:58.026Z,99365.09
2023-04-05T10:29:04.057Z,99380.43
2023-04-05T10:30:08.968Z,99381.95
2023-04-05T10:31:27.036Z,99383.02
2023-04-05T10:32:26.955Z,99384.25
2023-04-05T10:33:42.683Z,99367.84
2023-04-05T10:34:57.826Z,99367.59
2023-04-05T10:36:19.289Z,99375.63
2023-04-05T10:37:43.204Z,99367.27
2023-04-05T10:40:03.094Z,99371.70
2023-04-05T10:41:15.442Z,99374.11
2023-04-05T10:42:23.526Z,99363.30
2023-04-05T10:43:27.280Z,99363.95
2023-04-05T10:44:35.807Z,99374.05
2023-04-05T10:45:40.602Z,99363.95
2023-04-05T10:46:45.984Z,99370.82
2023-04-05T10:47:56.765Z,99367.95
2023-04-05T10:49:06.461Z,99371.80
2023-04-05T10:50:13.160Z,99373.75
2023-04-05T10:51:15.908Z,99375.08
2023-04-05T10:52:19.328Z,99373.64
2023-04-05T10:53:22.263Z,99374.03
2023-04-05T10:54:25.347Z,99364.59
2023-04-05T10:55:29.083Z,99368.50
2023-04-05T10:56:33.002Z,99370.05
2023-04-05T10:57:37.670Z,99367.45
2023-04-05T10:58:41.730Z,99370.83
2023-04-05T10:59:46.640Z,99370.69
2023-04-05T11:00:50.679Z,99365.57
2023-04-05T11:01:55.835Z,99373.27
2023-04-05T11:02:59.800Z,99373.27
2023-04-05T11:04:13.189Z,99366.21
2023-04-05T11:05:36.959Z,99362.52
2023-04-05T11:06:39.924Z,99374.14
2023-04-05T11:07:44.739Z,99371.30
2023-04-05T11:08:50.522Z,99367.67
2023-04-05T11:10:04.102Z,99364.03
2023-04-05T11:11:07.581Z,99366.38
2023-04-05T11:12:11.030Z,99370.29
2023-04-05T11:13:13.588Z,99370.42
2023-04-05T11:14:25.533Z,99370.05
2023-04-05T11:15:34.313Z,99365.50
2023-04-05T11:16:41.152Z,99370.86
2023-04-05T11:17:43.685Z,99372.66
2023-04-05T11:18:47.902Z,99375.77
2023-04-05T11:19:53.575Z,99370.88
2023-04-05T11:21:08.110Z,99371.85
2023-04-05T11:22:12.716Z,99376.14
2023-04-05T11:23:17.908Z,99375.77
2023-04-05T11:24:20.447Z,99376.33
2023-04-05T11:25:24.791Z,99362.02
2023-04-05T11:26:42.064Z,99357.66
2023-04-05T11:27:48.420Z,99364.27
2023-04-05T11:28:55.704Z,99376.77
2023-04-05T11:30:00.098Z,99361.20
2023-04-05T11:32:45.725Z,99364.53
2023-04-05T11:33:56.281Z,99349.25
2023-04-05T11:35:03.070Z,99362.41
2023-04-05T11:36:06.575Z,99357.10
2023-04-05T11:37:10.662Z,99356.72
2023-04-05T11:38:23.165Z,99356.98
2023-04-05T11:39:26.783Z,99356.98
2023-04-05T11:40:38.123Z,99361.58
2023-04-05T11:41:40.776Z,99350.50
2023-04-05T11:42:43.712Z,99352.19
2023-04-05T11:43:47.278Z,99359.94
2023-04-05T11:44:52.007Z,99363.31
2023-04-05T11:45:54.996Z,99352.61
2023-04-05T11:46:57.731Z,99361.89
2023-04-05T11:48:02.706Z,99360.91
2023-04-05T11:49:05.302Z,99349.25
2023-04-05T11:50:09.621Z,99350.23
2023-04-05T11:51:12.765Z,99350.23
2023-04-05T11:52:18.203Z,99349.25
2023-04-05T11:53:21.699Z,99349.56
2023-04-05T11:54:34.021Z,99352.44
2023-04-05T11:55:37.611Z,99358.21
2023-04-05T11:56:42.393Z,99351.56
2023-04-05T11:57:46.571Z,99355.22
2023-04-05T11:58:48.875Z,99356.95
2023-04-05T11:59:53.511Z,99356.25
2023-04-05T12:01:01.667Z,99350.31
2023-04-05T12:02:07.602Z,99362.77
2023-04-05T12:04:26.823Z,99350.99
2023-04-05T12:05:50.134Z,99340.98
2023-04-05T12:07:10.424Z,99349.47
2023-04-05T12:08:13.013Z,99350.73
2023-04-05T12:09:16.472Z,99347.05
2023-04-05T12:10:18.893Z,99346.30
2023-04-05T12:11:30.675Z,99342.99
2023-04-05T12:13:45.903Z,99339.99
2023-04-05T12:14:48.655Z,99341.05
2023-04-05T12:15:51.141Z,99336.70
2023-04-05T12:16:53.953Z,99330.39
2023-04-05T12:17:56.278Z,99334.80
2023-04-05T12:19:00.288Z,99332.74
2023-04-05T12:20:03.578Z,99333.36
2023-04-05T12:21:09.653Z,99326.83
2023-04-05T12:22:13.688Z,99331.03
2023-04-05T12:23:18.103Z,99328.25
2023-04-05T12:24:21.245Z,99325.57
2023-04-05T12:25:24.956Z,99335.50
2023-04-05T12:26:30.067Z,99333.19
2023-04-05T12:27:33.067Z,99326.81
2023-04-05T12:28:55.537Z,99335.70
2023-04-05T12:30:10.594Z,99330.95
2023-04-05T12:31:13.661Z,99329.40
2023-04-05T12:32:15.999Z,99336.27
2023-04-05T12:33:33.434Z,99334.59
2023-04-05T12:34:37.416Z,99326.95
2023-04-05T12:35:39.892Z,99323.58
2023-04-05T12:36:46.127Z,99324.48
2023-04-05T12:37:50.839Z,99323.37
2023-04-05T12:38:55.932Z,99326.02
2023-04-05T12:40:03.486Z,99321.89
2023-04-05T12:41:06.849Z,99321.89
2023-04-05T12:42:12.979Z,99311.39
2023-04-05T12:43:17.270Z,99319.17
2023-04-05T12:44:30.486Z,99312.84
2023-04-05T12:45:41.554Z,99308.84
2023-04-05T12:46:46.887Z,99304.28
2023-04-05T12:47:52.435Z,99305.89
2023-04-05T12:48:55.097Z,99309.13
2023-04-05T12:49:57.794Z,99314.16
2023-04-05T12:51:04.503Z,99313.25
2023-04-05T12:52:07.818Z,99312.27
2023-04-05T12:53:23.224Z,99296.56
2023-04-05T12:54:27.106Z,99286.79
2023-04-05T12:55:31.293Z,99294.09
2023-04-05T12:56:33.625Z,99298.38
2023-04-05T12:57:36.173Z,99294.02
2023-04-05T12:58:39.651Z,99303.97